Home > Products > Valid Products > TAF

000
FTUS43 KARX 221720
TAFRST
TAF
KRST 221720Z 2218/2318 14005KT P6SM SCT200
     FM231200 21007KT P6SM BKN100=



000
FTUS43 KARX 221720
TAFLSE
TAF
KLSE 221720Z 2218/2318 13004KT P6SM SKC
     FM230000 13003KT P6SM SCT200
     FM231500 17005KT P6SM BKN100=



000
FTUS43 KARX 221720
TAFRST
TAF
KRST 221720Z 2218/2318 14005KT P6SM SCT200
     FM231200 21007KT P6SM BKN100=



000
FTUS43 KARX 221720
TAFLSE
TAF
KLSE 221720Z 2218/2318 13004KT P6SM SKC
     FM230000 13003KT P6SM SCT200
     FM231500 17005KT P6SM BKN100=



000
FTUS43 KARX 221125
TAFLSE
TAF
KLSE 221125Z 2212/2312 13004KT P6SM SKC
     FM230000 14005KT P6SM SKC=



000
FTUS43 KARX 221125
TAFLSE
TAF
KLSE 221125Z 2212/2312 13004KT P6SM SKC
     FM230000 14005KT P6SM SKC=



000
FTUS43 KARX 221125
TAFRST
TAF
KRST 221125Z 2212/2312 31006KT P6SM SKC
     FM221500 14005KT P6SM SKC
     FM230800 14006KT P6SM SCT100=



000
FTUS43 KARX 221125
TAFRST
TAF
KRST 221125Z 2212/2312 31006KT P6SM SKC
     FM221500 14005KT P6SM SKC
     FM230800 14006KT P6SM SCT100=



000
FTUS43 KARX 221125
TAFLSE
TAF
KLSE 221125Z 2212/2312 13004KT P6SM SKC
     FM230000 14005KT P6SM SKC=



000
FTUS43 KARX 221125
TAFLSE
TAF
KLSE 221125Z 2212/2312 13004KT P6SM SKC
     FM230000 14005KT P6SM SKC=



000
FTUS43 KARX 221125
TAFRST
TAF
KRST 221125Z 2212/2312 31006KT P6SM SKC
     FM221500 14005KT P6SM SKC
     FM230800 14006KT P6SM SCT100=



000
FTUS43 KARX 221125
TAFRST
TAF
KRST 221125Z 2212/2312 31006KT P6SM SKC
     FM221500 14005KT P6SM SKC
     FM230800 14006KT P6SM SCT100=



000
FTUS43 KARX 220525
TAFLSE
TAF
KLSE 220525Z 2206/2306 VRB03KT P6SM SKC
     FM221500 14005KT P6SM SKC=



000
FTUS43 KARX 220525
TAFRST
TAF
KRST 220525Z 2206/2306 33006KT P6SM SKC
     FM221500 14005KT P6SM SKC=



000
FTUS43 KARX 220525
TAFRST
TAF
KRST 220525Z 2206/2306 33006KT P6SM SKC
     FM221500 14005KT P6SM SKC=



000
FTUS43 KARX 220525
TAFRST
TAF
KRST 220525Z 2206/2306 33006KT P6SM SKC
     FM221500 14005KT P6SM SKC=



000
FTUS43 KARX 220525
TAFLSE
TAF
KLSE 220525Z 2206/2306 VRB03KT P6SM SKC
     FM221500 14005KT P6SM SKC=



000
FTUS43 KARX 220525
TAFLSE
TAF
KLSE 220525Z 2206/2306 VRB03KT P6SM SKC
     FM221500 14005KT P6SM SKC=



000
FTUS43 KARX 220525
TAFRST
TAF
KRST 220525Z 2206/2306 33006KT P6SM SKC
     FM221500 14005KT P6SM SKC=



000
FTUS43 KARX 220525
TAFLSE
TAF
KLSE 220525Z 2206/2306 VRB03KT P6SM SKC
     FM221500 14005KT P6SM SKC=



000
FTUS43 KARX 212330
TAFRST
TAF
KRST 212330Z 2200/2224 34008KT P6SM SKC
     FM221500 13005KT P6SM SKC=



000
FTUS43 KARX 212330
TAFLSE
TAF
KLSE 212330Z 2200/2224 32007KT P6SM SKC
     FM220400 VRB03KT P6SM SKC=



000
FTUS43 KARX 212330
TAFRST
TAF
KRST 212330Z 2200/2224 34008KT P6SM SKC
     FM221500 13005KT P6SM SKC=



000
FTUS43 KARX 212330
TAFLSE
TAF
KLSE 212330Z 2200/2224 32007KT P6SM SKC
     FM220400 VRB03KT P6SM SKC=



000
FTUS43 KARX 212330
TAFLSE
TAF
KLSE 212330Z 2200/2224 32007KT P6SM SKC
     FM220400 VRB03KT P6SM SKC=



000
FTUS43 KARX 212330
TAFRST
TAF
KRST 212330Z 2200/2224 34008KT P6SM SKC
     FM221500 13005KT P6SM SKC=



000
FTUS43 KARX 212330
TAFRST
TAF
KRST 212330Z 2200/2224 34008KT P6SM SKC
     FM221500 13005KT P6SM SKC=



000
FTUS43 KARX 212330
TAFLSE
TAF
KLSE 212330Z 2200/2224 32007KT P6SM SKC
     FM220400 VRB03KT P6SM SKC=



000
FTUS43 KARX 212016 AAA
TAFRST
TAF AMD
KRST 212016Z 2120/2218 32018G25KT P6SM FEW080
     FM220100 33010KT P6SM SKC
     FM221500 13005KT P6SM SKC=



000
FTUS43 KARX 212016 AAA
TAFRST
TAF AMD
KRST 212016Z 2120/2218 32018G25KT P6SM FEW080
     FM220100 33010KT P6SM SKC
     FM221500 13005KT P6SM SKC=



000
FTUS43 KARX 211720
TAFLSE
TAF
KLSE 211720Z 2118/2218 27012G19KT P6SM SCT080
     FM220100 32006KT P6SM SKC
     FM220500 VRB03KT P6SM SKC=



000
FTUS43 KARX 211720
TAFLSE
TAF
KLSE 211720Z 2118/2218 27012G19KT P6SM SCT080
     FM220100 32006KT P6SM SKC
     FM220500 VRB03KT P6SM SKC=



000
FTUS43 KARX 211720
TAFRST
TAF
KRST 211720Z 2118/2218 29015G23KT P6SM SCT080
     FM220100 33006KT P6SM SKC
     FM221500 13005KT P6SM SKC=



000
FTUS43 KARX 211720
TAFRST
TAF
KRST 211720Z 2118/2218 29015G23KT P6SM SCT080
     FM220100 33006KT P6SM SKC
     FM221500 13005KT P6SM SKC=



000
FTUS43 KARX 211720
TAFLSE
TAF
KLSE 211720Z 2118/2218 27012G19KT P6SM SCT080
     FM220100 32006KT P6SM SKC
     FM220500 VRB03KT P6SM SKC=



000
FTUS43 KARX 211720
TAFLSE
TAF
KLSE 211720Z 2118/2218 27012G19KT P6SM SCT080
     FM220100 32006KT P6SM SKC
     FM220500 VRB03KT P6SM SKC=



000
FTUS43 KARX 211720
TAFRST
TAF
KRST 211720Z 2118/2218 29015G23KT P6SM SCT080
     FM220100 33006KT P6SM SKC
     FM221500 13005KT P6SM SKC=



000
FTUS43 KARX 211720
TAFRST
TAF
KRST 211720Z 2118/2218 29015G23KT P6SM SCT080
     FM220100 33006KT P6SM SKC
     FM221500 13005KT P6SM SKC=



000
FTUS43 KARX 211132
TAFRST
TAF
KRST 211132Z 2112/2212 25012KT P6SM SKC
     FM211800 29013G21KT P6SM SCT070
     FM220100 33007KT P6SM SKC
     FM220400 32005KT P6SM SKC=



000
FTUS43 KARX 211132
TAFLSE
TAF
KLSE 211132Z 2112/2212 19005KT P6SM BKN150
     FM211300 24012KT P6SM SCT070
     FM211800 27012G19KT P6SM SCT070
     FM220100 32006KT P6SM SKC
     FM220500 VRB03KT P6SM SKC=



000
FTUS43 KARX 211132
TAFLSE
TAF
KLSE 211132Z 2112/2212 19005KT P6SM BKN150
     FM211300 24012KT P6SM SCT070
     FM211800 27012G19KT P6SM SCT070
     FM220100 32006KT P6SM SKC
     FM220500 VRB03KT P6SM SKC=



000
FTUS43 KARX 211132
TAFRST
TAF
KRST 211132Z 2112/2212 25012KT P6SM SKC
     FM211800 29013G21KT P6SM SCT070
     FM220100 33007KT P6SM SKC
     FM220400 32005KT P6SM SKC=



000
FTUS43 KARX 211132
TAFRST
TAF
KRST 211132Z 2112/2212 25012KT P6SM SKC
     FM211800 29013G21KT P6SM SCT070
     FM220100 33007KT P6SM SKC
     FM220400 32005KT P6SM SKC=



000
FTUS43 KARX 211132
TAFLSE
TAF
KLSE 211132Z 2112/2212 19005KT P6SM BKN150
     FM211300 24012KT P6SM SCT070
     FM211800 27012G19KT P6SM SCT070
     FM220100 32006KT P6SM SKC
     FM220500 VRB03KT P6SM SKC=



000
FTUS43 KARX 211132
TAFLSE
TAF
KLSE 211132Z 2112/2212 19005KT P6SM BKN150
     FM211300 24012KT P6SM SCT070
     FM211800 27012G19KT P6SM SCT070
     FM220100 32006KT P6SM SKC
     FM220500 VRB03KT P6SM SKC=



000
FTUS43 KARX 211132
TAFRST
TAF
KRST 211132Z 2112/2212 25012KT P6SM SKC
     FM211800 29013G21KT P6SM SCT070
     FM220100 33007KT P6SM SKC
     FM220400 32005KT P6SM SKC=



000
FTUS43 KARX 210942 AAA
TAFLSE
TAF AMD
KLSE 210942Z 2110/2206 26005KT P6SM BKN150
     FM211300 26012KT P6SM SCT070
     FM220100 32006KT P6SM SKC=



000
FTUS43 KARX 210942 AAA
TAFLSE
TAF AMD
KLSE 210942Z 2110/2206 26005KT P6SM BKN150
     FM211300 26012KT P6SM SCT070
     FM220100 32006KT P6SM SKC=



000
FTUS43 KARX 210525
TAFRST
TAF
KRST 210525Z 2106/2206 24008KT P6SM SKC
     FM211400 26011KT P6SM SKC
     FM211800 29013G21KT P6SM SCT070
     FM220100 33007KT P6SM SKC=



000
FTUS43 KARX 210525
TAFLSE
TAF
KLSE 210525Z 2106/2206 16005KT P6SM SKC
     FM211700 26012KT P6SM SCT070
     FM220100 32006KT P6SM SKC=



000
FTUS43 KARX 210525
TAFLSE
TAF
KLSE 210525Z 2106/2206 16005KT P6SM SKC
     FM211700 26012KT P6SM SCT070
     FM220100 32006KT P6SM SKC=



000
FTUS43 KARX 210525
TAFLSE
TAF
KLSE 210525Z 2106/2206 16005KT P6SM SKC
     FM211700 26012KT P6SM SCT070
     FM220100 32006KT P6SM SKC=



000
FTUS43 KARX 210525
TAFRST
TAF
KRST 210525Z 2106/2206 24008KT P6SM SKC
     FM211400 26011KT P6SM SKC
     FM211800 29013G21KT P6SM SCT070
     FM220100 33007KT P6SM SKC=



000
FTUS43 KARX 210525
TAFRST
TAF
KRST 210525Z 2106/2206 24008KT P6SM SKC
     FM211400 26011KT P6SM SKC
     FM211800 29013G21KT P6SM SCT070
     FM220100 33007KT P6SM SKC=



000
FTUS43 KARX 210525
TAFRST
TAF
KRST 210525Z 2106/2206 24008KT P6SM SKC
     FM211400 26011KT P6SM SKC
     FM211800 29013G21KT P6SM SCT070
     FM220100 33007KT P6SM SKC=



000
FTUS43 KARX 210525
TAFLSE
TAF
KLSE 210525Z 2106/2206 16005KT P6SM SKC
     FM211700 26012KT P6SM SCT070
     FM220100 32006KT P6SM SKC=



000
FTUS43 KARX 202330
TAFRST
TAF
KRST 202330Z 2100/2124 29008KT P6SM BKN110
     FM210400 27006KT P6SM SCT150
     FM211600 27011KT P6SM SKC
     FM211800 29013G21KT P6SM SCT060=



000
FTUS43 KARX 202330
TAFLSE
TAF
KLSE 202330Z 2100/2124 VRB03KT P6SM BKN110
     FM210500 21005KT P6SM SCT150
     FM211600 26010KT P6SM SKC=



000
FTUS43 KARX 202330
TAFLSE
TAF
KLSE 202330Z 2100/2124 VRB03KT P6SM BKN110
     FM210500 21005KT P6SM SCT150
     FM211600 26010KT P6SM SKC=



000
FTUS43 KARX 202330
TAFRST
TAF
KRST 202330Z 2100/2124 29008KT P6SM BKN110
     FM210400 27006KT P6SM SCT150
     FM211600 27011KT P6SM SKC
     FM211800 29013G21KT P6SM SCT060=



000
FTUS43 KARX 202330
TAFLSE
TAF
KLSE 202330Z 2100/2124 VRB03KT P6SM BKN110
     FM210500 21005KT P6SM SCT150
     FM211600 26010KT P6SM SKC=



000
FTUS43 KARX 202330
TAFRST
TAF
KRST 202330Z 2100/2124 29008KT P6SM BKN110
     FM210400 27006KT P6SM SCT150
     FM211600 27011KT P6SM SKC
     FM211800 29013G21KT P6SM SCT060=



000
FTUS43 KARX 202330
TAFLSE
TAF
KLSE 202330Z 2100/2124 VRB03KT P6SM BKN110
     FM210500 21005KT P6SM SCT150
     FM211600 26010KT P6SM SKC=



000
FTUS43 KARX 202330
TAFRST
TAF
KRST 202330Z 2100/2124 29008KT P6SM BKN110
     FM210400 27006KT P6SM SCT150
     FM211600 27011KT P6SM SKC
     FM211800 29013G21KT P6SM SCT060=



000
FTUS43 KARX 201720
TAFLSE
TAF
KLSE 201720Z 2018/2118 23006KT P6SM SCT050 BKN110
     FM210500 21005KT P6SM SCT050 SCT150
     FM211300 24010KT P6SM SKC=



000
FTUS43 KARX 201720
TAFLSE
TAF
KLSE 201720Z 2018/2118 23006KT P6SM SCT050 BKN110
     FM210500 21005KT P6SM SCT050 SCT150
     FM211300 24010KT P6SM SKC=



000
FTUS43 KARX 201720
TAFLSE
TAF
KLSE 201720Z 2018/2118 23006KT P6SM SCT050 BKN110
     FM210500 21005KT P6SM SCT050 SCT150
     FM211300 24010KT P6SM SKC=



000
FTUS43 KARX 201720
TAFRST
TAF
KRST 201720Z 2018/2118 25006KT P6SM SCT045 BKN100
     FM210400 24006KT P6SM SCT050 SCT150
     FM211300 27011KT P6SM SKC
     FM211600 29011G18KT P6SM SKC=



000
FTUS43 KARX 201720
TAFRST
TAF
KRST 201720Z 2018/2118 25006KT P6SM SCT045 BKN100
     FM210400 24006KT P6SM SCT050 SCT150
     FM211300 27011KT P6SM SKC
     FM211600 29011G18KT P6SM SKC=



000
FTUS43 KARX 201720
TAFLSE
TAF
KLSE 201720Z 2018/2118 23006KT P6SM SCT050 BKN110
     FM210500 21005KT P6SM SCT050 SCT150
     FM211300 24010KT P6SM SKC=



000
FTUS43 KARX 201720
TAFRST
TAF
KRST 201720Z 2018/2118 25006KT P6SM SCT045 BKN100
     FM210400 24006KT P6SM SCT050 SCT150
     FM211300 27011KT P6SM SKC
     FM211600 29011G18KT P6SM SKC=



000
FTUS43 KARX 201720
TAFRST
TAF
KRST 201720Z 2018/2118 25006KT P6SM SCT045 BKN100
     FM210400 24006KT P6SM SCT050 SCT150
     FM211300 27011KT P6SM SKC
     FM211600 29011G18KT P6SM SKC=



000
FTUS43 KARX 201132
TAFRST
TAF
KRST 201132Z 2012/2112 VRB03KT P6SM BKN120
     FM201700 24004KT P6SM SCT040 BKN090
     FM202100 28004KT P6SM SCT040 BKN080
     FM210300 25006KT P6SM SKC=



000
FTUS43 KARX 201132
TAFLSE
TAF
KLSE 201132Z 2012/2112 VRB03KT P6SM BKN130
     FM201800 23006KT P6SM BKN100
     FM210500 18006KT P6SM SCT150=



000
FTUS43 KARX 201132
TAFRST
TAF
KRST 201132Z 2012/2112 VRB03KT P6SM BKN120
     FM201700 24004KT P6SM SCT040 BKN090
     FM202100 28004KT P6SM SCT040 BKN080
     FM210300 25006KT P6SM SKC=



000
FTUS43 KARX 201132
TAFLSE
TAF
KLSE 201132Z 2012/2112 VRB03KT P6SM BKN130
     FM201800 23006KT P6SM BKN100
     FM210500 18006KT P6SM SCT150=



000
FTUS43 KARX 200525
TAFLSE
TAF
KLSE 200525Z 2006/2106 VRB03KT P6SM BKN250
     FM201900 30005KT P6SM BKN120
     FM210200 VRB03KT P6SM SCT120=



000
FTUS43 KARX 200525
TAFRST
TAF
KRST 200525Z 2006/2106 03005KT P6SM BKN250
     FM201700 28005KT P6SM BKN150=



000
FTUS43 KARX 200525
TAFLSE
TAF
KLSE 200525Z 2006/2106 VRB03KT P6SM BKN250
     FM201900 30005KT P6SM BKN120
     FM210200 VRB03KT P6SM SCT120=



000
FTUS43 KARX 200525
TAFRST
TAF
KRST 200525Z 2006/2106 03005KT P6SM BKN250
     FM201700 28005KT P6SM BKN150=



000
FTUS43 KARX 200525
TAFRST
TAF
KRST 200525Z 2006/2106 03005KT P6SM BKN250
     FM201700 28005KT P6SM BKN150=



000
FTUS43 KARX 200525
TAFLSE
TAF
KLSE 200525Z 2006/2106 VRB03KT P6SM BKN250
     FM201900 30005KT P6SM BKN120
     FM210200 VRB03KT P6SM SCT120=



000
FTUS43 KARX 200525
TAFLSE
TAF
KLSE 200525Z 2006/2106 VRB03KT P6SM BKN250
     FM201900 30005KT P6SM BKN120
     FM210200 VRB03KT P6SM SCT120=



000
FTUS43 KARX 200525
TAFRST
TAF
KRST 200525Z 2006/2106 03005KT P6SM BKN250
     FM201700 28005KT P6SM BKN150=



000
FTUS43 KARX 192330
TAFRST
TAF
KRST 192330Z 2000/2024 02006KT P6SM BKN250
     FM200200 01005KT P6SM BKN120
     FM201400 14005KT P6SM BKN100=



000
FTUS43 KARX 192330
TAFLSE
TAF
KLSE 192330Z 2000/2024 36006KT P6SM SCT040
     FM200200 VRB03KT P6SM BKN250
     FM202000 30005KT P6SM BKN150=



000
FTUS43 KARX 192330
TAFLSE
TAF
KLSE 192330Z 2000/2024 36006KT P6SM SCT040
     FM200200 VRB03KT P6SM BKN250
     FM202000 30005KT P6SM BKN150=



000
FTUS43 KARX 192330
TAFLSE
TAF
KLSE 192330Z 2000/2024 36006KT P6SM SCT040
     FM200200 VRB03KT P6SM BKN250
     FM202000 30005KT P6SM BKN150=



000
FTUS43 KARX 192330
TAFRST
TAF
KRST 192330Z 2000/2024 02006KT P6SM BKN250
     FM200200 01005KT P6SM BKN120
     FM201400 14005KT P6SM BKN100=



000
FTUS43 KARX 192330
TAFRST
TAF
KRST 192330Z 2000/2024 02006KT P6SM BKN250
     FM200200 01005KT P6SM BKN120
     FM201400 14005KT P6SM BKN100=



000
FTUS43 KARX 192025 AAA
TAFLSE
TAF AMD
KLSE 192025Z 1920/2018 34011KT P6SM BKN040
     FM192300 36008KT P6SM SCT040
     FM200200 VRB03KT P6SM BKN250
     FM201000 10003KT P6SM BKN130=



000
FTUS43 KARX 192025 AAA
TAFLSE
TAF AMD
KLSE 192025Z 1920/2018 34011KT P6SM BKN040
     FM192300 36008KT P6SM SCT040
     FM200200 VRB03KT P6SM BKN250
     FM201000 10003KT P6SM BKN130=



    US Dept of Commerce
    National Oceanic and Atmospheric Administration
    National Weather Service
    1325 East West Highway
    Silver Spring, MD 20910
    Page Author: NWS Internet Services Team
Disclaimer
Information Quality
Credits
Glossary
Privacy Policy
Freedom of Information Act (FOIA)
About Us
Career Opportunities